Strafford, Missouri
Current Conditions -  °F | °C
As of 12:52 PM on Sunday 23 Nov 2014 (Local Time) from KSGF Reporting Station
Overcast Overcast  
Wind Chill: 57°   Ceiling: 700
Heat Index: 57°   Visibility: 10mi
Dew Point: 54°   Wind: 9mph
Humidity: 89%   Direction: 160°SSE
Pressure: 29.37"   Gusts: NA
Location:  37.27°N, 93.12°W
Report Text: KSGF 231852Z 16008KT 10SM BKN007 OVC014 14/12 A2937 RMK AO2 CIG 006V011 SLP943 T01390122
Loading
Personal Weather Stations






























Interactive Weather Map New forecast layout! Learn more

10-Day Weather Forecast

Advertisements
Track Severe Weather on mobile